x

Northwestern Hawaii Two - 190nm Nw Of Kauai Is, Hi (51101) Wave Buoy

11:50pm - Sat 28th Feb 2015 All times are HST. -10 hours from GMT.

  • Sig Wave height 5.2ft
  • Swell Direction
  • Peak Period 9s
  • Average Period 6s
  • Wind
    20mph, 25mph gusts
  • Sea Temp 71°f
  • Air Temp 67°f
  • Sea Pressure 1019.6mb
  • Northwestern Hawaii Two - 190nm Nw Of Kauai Is, Hi
  • Northwestern Hawaii Two - 190nm Nw Of Kauai Is, Hi

More Historic Weather Station data

Upgrade to MSW Pro to gain access to the past 30 days of data for over 8000 Wavebouys and Weather Stations around the globe.

Join Pro

Comparision Forecast

View Surf forecast
   
Sat 02/28 11:50pm 5ft 9s 6s 20 25 mph 1019.6mb 71f 67f
10:50pm 6ft 9s 6s 16 20 mph 1020mb 71f 67f
9:50pm 6ft 10s 5s 18 25 mph 1019.6mb 71f 66f
8:50pm 6ft 10s 6s 18 25 mph 1018.8mb 71f 67f
7:50pm 5.5ft 10s 6s 20 25 mph 1018.2mb 71f 66f
6:50pm 6ft 10s 6s 20 25 mph 1017.6mb 71f 66f
5:50pm 6ft 10s 6s 20 25 mph 1016.6mb 71f 67f
4:50pm 6ft 10s 6s 16 20 mph 1016.1mb 71f 66f
3:50pm 6ft 9s 6s 18 22 mph 1015.9mb 71f 66f
2:50pm 6ft 10s 6s 18 22 mph 1016.1mb 71f 66f
1:50pm 6ft 10s 6s 16 22 mph 1016.7mb 71f 66f
12:50pm 6ft 8s 6s 16 20 mph 1017.5mb 71f 66f
11:50am 6ft 9s 6s 16 18 mph 1018.2mb 71f 66f
10:50am 6ft 10s 6s 13 18 mph 1018.8mb 71f 66f
9:50am 6ft 10s 6s 16 20 mph 1018.5mb 71f 65f
8:50am 5.5ft 10s 6s 18 22 mph 1018.3mb 71f 65f
7:50am 6ft 10s 6s 16 20 mph 1017.8mb 70f 65f
6:50am 6.5ft 10s 6s 16 20 mph 1017.2mb 70f 65f
5:50am 6.5ft 10s 6s 16 22 mph 1017mb 70f 64f
4:50am 7ft 9s 6s 16 20 mph 1016.9mb 71f 65f
3:50am 6.5ft 7s 6s 16 20 mph 1017.3mb 71f 65f
2:50am 7ft 9s 6s 18 22 mph 1017.3mb 71f 66f
1:50am 7ft 8s 6s 16 20 mph 1017.7mb 71f 66f
Fri 02/27 11:50pm 7.5ft 10s 6s 16 20 mph 1018.2mb 71f 66f
10:50pm 8ft 7s 7s 18 22 mph 1018.4mb 71f 66f
9:50pm 7.5ft 9s 6s 18 22 mph 1018.3mb 71f 66f
8:50pm 7.5ft 10s 7s 18 22 mph 1017.9mb 71f 67f
7:50pm 8ft 11s 7s 20 25 mph 1017mb 71f 67f
6:50pm 8ft 10s 6s 18 20 mph 1016.6mb 71f 67f
5:50pm 8ft 10s 6s 18 22 mph 1016mb 72f 68f
4:50pm 8ft 10s 7s 18 22 mph 1015.8mb 72f 68f
3:50pm 9ft 10s 7s 18 20 mph 1015.8mb 72f 67f
2:50pm 7.5ft 8s 6s 16 20 mph 1016.3mb 72f 68f
1:50pm 8ft 11s 6s 18 20 mph 1017.2mb 72f 68f
12:50pm 8ft 9s 6s 20 25 mph 1017.6mb 71f 68f
11:50am 8.5ft 10s 7s 20 25 mph 1018mb 71f 68f
10:50am 8ft 10s 6s 20 22 mph 1018.2mb 71f 68f
9:50am 9ft 10s 7s 18 22 mph 1017.6mb 71f 68f
8:50am 8ft 10s 6s 20 25 mph 1017mb 71f 68f
7:50am 8ft 11s 6s 20 25 mph 1016.6mb 71f 68f
6:50am 8.5ft 9s 7s 22 25 mph 1015.9mb 71f 68f
5:50am 8ft 10s 6s 20 25 mph 1015.2mb 71f 68f
4:50am 8.5ft 10s 6s 22 27 mph 1015mb 71f 68f
3:50am 7.5ft 10s 6s 22 27 mph 1014.9mb 71f 68f
2:50am 7.5ft 9s 6s 22 27 mph 1015.1mb 71f 67f
1:50am 8ft 10s 7s 20 22 mph 1015.7mb 71f 69f
12:50am 8ft 9s 7s 18 22 mph 1016mb 71f 68f
Thu 02/26 11:50pm 7.5ft 10s 7s 11 13 mph 1016.4mb 71f 70f
10:50pm 8ft 9s 7s 11 13 mph 1016.6mb 71f 70f
9:50pm 7ft 10s 7s 16 18 mph 1016.4mb 71f 70f
8:50pm 7ft 10s 7s 16 18 mph 1016mb 71f 70f
7:50pm 7ft 9s 7s 16 20 mph 1015.5mb 71f 70f
6:50pm 7ft 10s 8s 18 20 mph 1014.8mb 72f 71f
5:50pm 6.5ft 9s 8s 9 11 mph 1014.6mb 72f 73f
4:50pm 6.5ft 8s 8s 11 13 mph 1013.9mb 72f 72f
3:50pm 6.5ft 10s 8s 7 9 mph 1013.5mb 72f 73f
2:50pm 6ft 11s 7s  -  2 mph 1013.5mb 72f 73f
1:50pm 6.5ft 11s 7s 2 4 mph 1014.6mb 72f 73f
12:50pm 7ft 9s 7s 13 16 mph 1014.5mb 72f 71f
11:50am 6.5ft 11s 6s 9 11 mph 1016.9mb 72f 72f
10:50am 7ft 10s 6s 29 34 mph 1014.6mb 72f 71f
9:50am 7ft 12s 7s 16 20 mph 1017mb 71f 72f
8:50am 7ft 11s 6s 20 22 mph 1015.8mb 71f 72f
7:50am 7ft 8s 6s 22 25 mph 1014.6mb 71f 72f
6:50am 7ft 11s 6s 18 20 mph 1015.7mb 71f 71f
5:50am 7ft 11s 6s 18 20 mph 1015.8mb 71f 70f
4:50am 6ft 11s 7s 20 25 mph 1015.3mb 72f 69f
3:50am 7ft 11s 8s 18 20 mph 1015.8mb 72f 70f
2:50am 6.5ft 12s 7s 9 11 mph 1016.4mb 72f 71f
1:50am 7ft 10s 7s 18 22 mph 1016.9mb 72f 69f
12:50am 7ft 12s 7s 7 9 mph 1017.5mb 72f 70f
Wed 02/25 11:50pm 7.5ft 11s 7s 13 16 mph 1018.2mb 72f 68f
10:50pm 7.5ft 11s 8s 20 27 mph 1018.4mb 72f 69f
9:50pm 7.5ft 12s 8s 9 13 mph 1017.7mb 72f 73f
8:50pm 7.5ft 12s 8s 13 16 mph 1016.9mb 72f 73f
7:50pm 8ft 13s 8s 11 13 mph 1015.8mb 72f 73f
6:50pm 8ft 12s 8s 13 16 mph 1014.9mb 72f 73f
5:50pm 7ft 11s 7s 11 16 mph 1014.4mb 72f 73f
4:50pm 8ft 13s 8s 11 16 mph 1013.9mb 72f 73f
3:50pm 8ft 13s 7s 11 16 mph 1013.6mb 72f 73f
2:50pm 8.5ft 11s 8s 13 18 mph 1013.7mb 72f 73f
1:50pm 9ft 13s 8s 11 13 mph 1014.4mb 72f 73f
12:50pm 9ft 13s 8s 9 13 mph 1015.4mb 72f 73f
11:50am 9ft 13s 8s 11 16 mph 1016.3mb 72f 73f